Shotts, United Kingdom
Current Conditions -  °F | °C
As of 4:20 AM on Wednesday 28 Jan 2015 (Local Time) from EGPH Reporting Station
Light Rain Light Rain  
Wind Chill: 38°   Ceiling: 1900
Heat Index: 46°   Visibility: 6mi
Dew Point: 43°   Wind: 24mph
Humidity: 87%   Direction: 210°SSW
Pressure: 29.32"   Gusts: 36mph
Location:  55.82°N, 3.81°W
Report Text: EGPH 280420Z 21021G31KT 9999 -RA FEW012 BKN019 08/06 Q0993
Loading
Personal Weather Stations






























Interactive Weather Map New forecast layout! Learn more

10-Day Weather Forecast

Advertisements
Track Severe Weather on mobile